createdAt,value
2022-09-22T00:01:34.485Z,121.67
2022-09-22T00:04:07.084Z,121.67
2022-09-22T00:06:39.133Z,121.60
2022-09-22T00:09:11.978Z,121.57
2022-09-22T00:11:44.866Z,121.37
2022-09-22T00:14:28.270Z,121.80
2022-09-22T00:17:03.370Z,121.40
2022-09-22T00:19:35.555Z,121.80
2022-09-22T00:22:04.982Z,121.17
2022-09-22T00:24:33.439Z,121.63
2022-09-22T00:27:01.214Z,121.53
2022-09-22T00:29:30.694Z,121.37
2022-09-22T00:32:01.191Z,121.63
2022-09-22T00:34:31.107Z,121.70
2022-09-22T00:36:58.817Z,121.07
2022-09-22T00:39:27.452Z,121.17
2022-09-22T00:41:54.959Z,118.33
2022-09-22T00:44:34.178Z,121.17
2022-09-22T00:47:28.938Z,121.40
2022-09-22T00:50:21.219Z,120.83
2022-09-22T00:53:13.671Z,121.60
2022-09-22T00:56:07.227Z,121.80
2022-09-22T00:58:47.512Z,121.07
2022-09-22T01:01:17.485Z,121.00
2022-09-22T01:03:47.064Z,121.40
2022-09-22T01:06:25.723Z,121.10
2022-09-22T01:08:56.170Z,120.47
2022-09-22T01:11:30.287Z,120.97
2022-09-22T01:14:39.779Z,121.27
2022-09-22T01:17:38.211Z,121.20
2022-09-22T01:20:39.196Z,121.50
2022-09-22T01:23:56.000Z,121.27
2022-09-22T01:26:31.162Z,121.50
2022-09-22T01:30:05.040Z,121.40
2022-09-22T01:33:12.956Z,118.07
2022-09-22T01:36:18.084Z,121.40
2022-09-22T01:39:28.880Z,121.27
2022-09-22T01:42:34.286Z,121.70
2022-09-22T01:45:24.241Z,120.30
2022-09-22T01:48:00.312Z,121.60
2022-09-22T01:50:44.276Z,121.60
2022-09-22T01:53:18.176Z,118.47
2022-09-22T01:55:55.816Z,120.77
2022-09-22T01:58:37.121Z,121.30
2022-09-22T02:01:16.585Z,121.53
2022-09-22T02:04:17.574Z,121.40
2022-09-22T02:07:25.036Z,121.40
2022-09-22T02:09:54.308Z,118.50
2022-09-22T02:12:23.477Z,120.97
2022-09-22T02:14:52.694Z,121.10
2022-09-22T02:17:21.598Z,121.10
2022-09-22T02:19:51.489Z,121.77
2022-09-22T02:22:21.785Z,120.00
2022-09-22T02:24:50.861Z,121.37
2022-09-22T02:27:27.852Z,119.70
2022-09-22T02:30:05.818Z,121.27
2022-09-22T02:32:39.238Z,120.07
2022-09-22T02:35:09.841Z,119.67
2022-09-22T02:37:55.614Z,121.30
2022-09-22T02:41:13.709Z,120.97
2022-09-22T02:44:14.557Z,120.53
2022-09-22T02:47:11.389Z,121.40
2022-09-22T02:49:43.687Z,118.20
2022-09-22T02:52:15.290Z,119.83
2022-09-22T02:54:45.390Z,121.00
2022-09-22T02:57:14.326Z,120.77
2022-09-22T02:59:43.842Z,121.00
2022-09-22T03:02:12.934Z,118.27
2022-09-22T03:04:41.815Z,121.17
2022-09-22T03:07:10.594Z,121.13
2022-09-22T03:09:39.345Z,119.63
2022-09-22T03:12:08.286Z,118.03
2022-09-22T03:14:36.898Z,121.30
2022-09-22T03:17:05.978Z,119.80
2022-09-22T03:19:35.034Z,120.00
2022-09-22T03:22:03.978Z,120.57
2022-09-22T03:24:33.178Z,119.80
2022-09-22T03:27:02.082Z,121.10
2022-09-22T03:29:31.042Z,121.17
2022-09-22T03:32:00.526Z,120.67
2022-09-22T03:34:29.723Z,120.80
2022-09-22T03:36:57.758Z,120.57
2022-09-22T03:39:25.222Z,120.67
2022-09-22T03:41:52.686Z,121.40
2022-09-22T03:44:20.090Z,120.90
2022-09-22T03:46:47.574Z,119.50
2022-09-22T03:49:15.026Z,120.57
2022-09-22T03:51:42.596Z,121.03
2022-09-22T03:54:09.974Z,120.77
2022-09-22T03:56:37.413Z,120.70
2022-09-22T03:59:05.479Z,120.50
2022-09-22T04:01:33.863Z,120.47
2022-09-22T04:04:01.538Z,120.93
2022-09-22T04:06:28.979Z,120.07
2022-09-22T04:08:56.611Z,121.10
2022-09-22T04:11:24.464Z,120.37
2022-09-22T04:13:51.979Z,120.57
2022-09-22T04:16:19.562Z,120.77
2022-09-22T04:18:47.148Z,121.40
2022-09-22T04:21:14.551Z,121.20
2022-09-22T04:23:41.939Z,121.20
2022-09-22T04:26:09.377Z,120.60
2022-09-22T04:28:36.800Z,120.90
2022-09-22T04:31:04.318Z,120.90
2022-09-22T04:33:32.082Z,120.73
2022-09-22T04:35:59.568Z,120.43
2022-09-22T04:38:27.187Z,120.90
2022-09-22T04:40:54.719Z,120.17
2022-09-22T04:43:22.207Z,121.30
2022-09-22T04:45:49.731Z,120.67
2022-09-22T04:48:17.667Z,120.70
2022-09-22T04:50:47.993Z,120.70
2022-09-22T04:53:16.392Z,119.20
2022-09-22T04:55:43.826Z,120.00
2022-09-22T04:58:11.475Z,121.00
2022-09-22T05:00:38.919Z,120.47
2022-09-22T05:03:12.816Z,120.90
2022-09-22T05:05:40.530Z,120.37
2022-09-22T05:08:10.096Z,120.37
2022-09-22T05:10:37.560Z,119.70
2022-09-22T05:13:05.693Z,120.57
2022-09-22T05:15:34.461Z,120.50
2022-09-22T05:18:02.116Z,120.47
2022-09-22T05:20:29.773Z,119.97
2022-09-22T05:22:57.232Z,120.67
2022-09-22T05:25:24.929Z,120.37
2022-09-22T05:27:56.886Z,120.17
2022-09-22T05:30:26.812Z,120.70
2022-09-22T05:32:54.308Z,120.53
2022-09-22T05:35:24.656Z,120.60
2022-09-22T05:37:53.389Z,119.83
2022-09-22T05:40:23.859Z,120.47
2022-09-22T05:42:53.288Z,120.40
2022-09-22T05:45:21.744Z,120.80
2022-09-22T05:47:49.031Z,119.67
2022-09-22T05:50:19.966Z,120.20
2022-09-22T05:52:47.207Z,120.60
2022-09-22T05:55:14.916Z,119.37
2022-09-22T05:57:43.650Z,119.67
2022-09-22T06:00:12.155Z,120.40
2022-09-22T06:02:40.374Z,120.13
2022-09-22T06:05:07.929Z,119.87
2022-09-22T06:07:35.459Z,119.27
2022-09-22T06:10:03.257Z,119.80
2022-09-22T06:12:30.814Z,120.57
2022-09-22T06:14:58.221Z,119.97
2022-09-22T06:17:25.758Z,118.77
2022-09-22T06:19:53.149Z,117.27
2022-09-22T06:22:20.634Z,119.10
2022-09-22T06:24:48.721Z,118.77
2022-09-22T06:27:16.326Z,117.40
2022-09-22T06:29:43.993Z,119.83
2022-09-22T06:32:11.692Z,119.70
2022-09-22T06:34:39.317Z,119.40
2022-09-22T06:37:09.619Z,119.60
2022-09-22T06:39:39.871Z,119.53
2022-09-22T06:42:07.606Z,119.63
2022-09-22T06:44:35.637Z,118.20
2022-09-22T06:47:08.373Z,119.40
2022-09-22T06:49:35.846Z,119.77
2022-09-22T06:52:03.712Z,119.70
2022-09-22T06:54:31.217Z,118.67
2022-09-22T06:56:58.669Z,119.90
2022-09-22T06:59:26.210Z,120.27
2022-09-22T07:01:53.624Z,119.90
2022-09-22T07:04:23.156Z,119.70
2022-09-22T07:06:50.622Z,120.67
2022-09-22T07:09:18.119Z,120.17
2022-09-22T07:11:47.267Z,120.07
2022-09-22T07:14:15.105Z,120.10
2022-09-22T07:16:43.067Z,120.20
2022-09-22T07:19:10.564Z,120.50
2022-09-22T07:21:38.118Z,120.40
2022-09-22T07:24:08.101Z,120.57
2022-09-22T07:26:39.228Z,120.20
2022-09-22T07:29:13.097Z,118.23
2022-09-22T07:31:41.758Z,120.80
2022-09-22T07:34:09.510Z,119.27
2022-09-22T07:36:37.983Z,120.77
2022-09-22T07:39:10.132Z,119.80
2022-09-22T07:41:42.820Z,120.20
2022-09-22T07:44:31.676Z,118.83
2022-09-22T07:47:00.025Z,118.50
2022-09-22T07:49:27.530Z,119.70
2022-09-22T07:51:57.124Z,118.97
2022-09-22T07:54:26.684Z,120.30
2022-09-22T07:56:58.538Z,119.80
2022-09-22T07:59:27.317Z,120.07
2022-09-22T08:03:57.113Z,120.27
2022-09-22T08:06:24.694Z,120.60
2022-09-22T08:08:56.793Z,121.30
2022-09-22T08:11:28.807Z,119.90
2022-09-22T08:14:01.863Z,120.43
2022-09-22T08:16:32.959Z,119.23
2022-09-22T08:19:12.502Z,119.40
2022-09-22T08:21:50.071Z,118.80
2022-09-22T08:24:23.306Z,118.90
2022-09-22T08:26:55.877Z,119.47
2022-09-22T08:29:24.338Z,119.37
2022-09-22T08:31:51.982Z,119.50
2022-09-22T08:34:20.014Z,118.80
2022-09-22T08:36:48.492Z,119.07
2022-09-22T08:39:18.113Z,118.63
2022-09-22T08:41:48.120Z,117.97
2022-09-22T08:44:30.957Z,117.40
2022-09-22T08:47:02.014Z,115.80
2022-09-22T08:50:01.731Z,117.37
2022-09-22T08:52:42.304Z,117.50
2022-09-22T08:55:22.945Z,117.07
2022-09-22T08:58:06.428Z,116.57
2022-09-22T09:00:56.797Z,116.30
2022-09-22T09:03:42.177Z,116.10
2022-09-22T09:06:20.857Z,115.67
2022-09-22T09:09:23.274Z,114.23
2022-09-22T09:12:34.206Z,115.47
2022-09-22T09:15:15.709Z,115.07
2022-09-22T09:17:47.133Z,114.70
2022-09-22T09:20:26.245Z,115.00
2022-09-22T09:22:58.189Z,115.50
2022-09-22T09:25:32.005Z,115.30
2022-09-22T09:28:07.158Z,114.07
2022-09-22T09:31:05.014Z,116.37
2022-09-22T09:34:17.916Z,114.97
2022-09-22T09:37:01.051Z,116.60
2022-09-22T09:39:37.163Z,116.37
2022-09-22T09:42:25.564Z,117.43
2022-09-22T09:44:54.648Z,114.83
2022-09-22T09:47:47.527Z,115.87
2022-09-22T09:50:16.653Z,116.70
2022-09-22T09:52:44.798Z,117.80
2022-09-22T09:55:27.430Z,117.90
2022-09-22T09:58:10.943Z,118.50
2022-09-22T10:00:59.294Z,118.30
2022-09-22T10:03:36.473Z,118.80
2022-09-22T10:06:10.838Z,119.60
2022-09-22T10:08:51.375Z,119.63
2022-09-22T10:11:31.159Z,119.37
2022-09-22T10:13:59.475Z,119.27
2022-09-22T10:16:33.344Z,120.40
2022-09-22T10:19:31.383Z,120.30
2022-09-22T10:22:27.220Z,120.60
2022-09-22T10:25:01.210Z,120.33
2022-09-22T10:27:31.680Z,120.50
2022-09-22T10:30:11.278Z,120.87
2022-09-22T10:32:39.815Z,120.20
2022-09-22T10:35:31.183Z,119.77
2022-09-22T10:38:14.799Z,119.70
2022-09-22T10:40:47.730Z,120.20
2022-09-22T10:43:54.827Z,119.80
2022-09-22T10:46:34.583Z,119.20
2022-09-22T10:49:46.543Z,118.30
2022-09-22T10:52:30.575Z,118.00
2022-09-22T10:55:54.069Z,117.80
2022-09-22T10:58:59.963Z,117.77
2022-09-22T11:02:23.551Z,117.20
2022-09-22T11:05:51.007Z,116.73
2022-09-22T11:08:39.111Z,115.87
2022-09-22T11:11:43.011Z,115.57
2022-09-22T11:14:42.397Z,113.80
2022-09-22T11:17:47.488Z,113.80
2022-09-22T11:20:42.435Z,114.13
2022-09-22T11:23:46.875Z,114.00
2022-09-22T11:26:35.821Z,114.50
2022-09-22T11:29:49.903Z,114.30
2022-09-22T11:32:49.559Z,115.10
2022-09-22T11:35:54.300Z,114.67
2022-09-22T11:39:12.243Z,114.33
2022-09-22T11:41:52.868Z,112.83
2022-09-22T11:44:36.305Z,112.80
2022-09-22T11:47:28.160Z,113.23
2022-09-22T11:50:18.153Z,113.00
2022-09-22T11:53:06.624Z,114.70
2022-09-22T11:56:03.737Z,114.77
2022-09-22T11:58:36.076Z,114.37
2022-09-22T12:01:22.161Z,116.07
2022-09-22T12:04:01.562Z,116.07
2022-09-22T12:06:37.988Z,115.43
2022-09-22T12:09:13.752Z,114.93
2022-09-22T12:11:42.742Z,114.60
2022-09-22T12:14:14.737Z,113.37
2022-09-22T12:17:16.097Z,114.77
2022-09-22T12:20:10.560Z,113.70
2022-09-22T12:23:15.961Z,113.60
2022-09-22T12:26:10.436Z,114.17
2022-09-22T12:28:45.499Z,113.77
2022-09-22T12:31:16.333Z,113.77
2022-09-22T12:33:54.645Z,113.67
2022-09-22T12:36:40.846Z,113.60
2022-09-22T12:39:09.350Z,113.37
2022-09-22T12:42:04.447Z,112.40
2022-09-22T12:44:44.738Z,113.03
2022-09-22T12:47:33.537Z,113.17
2022-09-22T12:50:28.334Z,113.53
2022-09-22T12:53:03.268Z,113.53
2022-09-22T12:55:38.796Z,114.17
2022-09-22T12:58:22.094Z,113.97
2022-09-22T13:00:53.171Z,114.17
2022-09-22T13:03:26.241Z,114.07
2022-09-22T13:06:22.617Z,114.27
2022-09-22T13:08:52.810Z,114.27
2022-09-22T13:12:12.977Z,114.50
2022-09-22T13:15:11.778Z,114.73
2022-09-22T13:17:47.594Z,114.67
2022-09-22T13:20:22.661Z,114.00
2022-09-22T13:22:51.890Z,113.70
2022-09-22T13:25:29.094Z,114.60
2022-09-22T13:28:12.602Z,115.27
2022-09-22T13:30:42.514Z,114.50
2022-09-22T13:33:23.003Z,115.17
2022-09-22T13:36:11.087Z,115.40
2022-09-22T13:38:55.191Z,115.07
2022-09-22T13:41:27.446Z,115.73
2022-09-22T13:43:59.362Z,115.57
2022-09-22T13:46:41.650Z,115.10
2022-09-22T13:49:18.174Z,115.20
2022-09-22T13:51:56.212Z,116.73
2022-09-22T13:54:28.903Z,116.40
2022-09-22T13:56:57.649Z,116.63
2022-09-22T13:59:39.713Z,115.53
2022-09-22T14:02:11.231Z,115.07
2022-09-22T14:04:49.361Z,115.67
2022-09-22T14:07:17.691Z,115.60
2022-09-22T14:09:45.504Z,116.87
2022-09-22T14:12:13.447Z,116.07
2022-09-22T14:14:40.727Z,116.03
2022-09-22T14:17:18.724Z,116.37
2022-09-22T14:20:01.140Z,116.00
2022-09-22T14:22:34.451Z,116.47
2022-09-22T14:25:07.283Z,116.77
2022-09-22T14:27:55.376Z,116.37
2022-09-22T14:30:28.916Z,115.37
2022-09-22T14:33:03.309Z,115.77
2022-09-22T14:35:36.067Z,116.77
2022-09-22T14:38:18.002Z,115.80
2022-09-22T14:40:58.647Z,115.27
2022-09-22T14:43:41.971Z,116.00
2022-09-22T14:46:34.704Z,116.27
2022-09-22T14:49:37.286Z,115.50
2022-09-22T14:52:07.581Z,115.93
2022-09-22T14:54:35.484Z,114.30
2022-09-22T14:57:07.592Z,115.80
2022-09-22T14:59:57.403Z,116.07
2022-09-22T15:02:35.371Z,115.80
2022-09-22T15:05:04.068Z,115.70
2022-09-22T15:07:36.498Z,114.73
2022-09-22T15:10:27.848Z,115.70
2022-09-22T15:13:18.277Z,116.27
2022-09-22T15:15:48.855Z,116.00
2022-09-22T15:18:18.925Z,116.47
2022-09-22T15:20:58.761Z,115.47
2022-09-22T15:23:51.205Z,114.33
2022-09-22T15:26:25.286Z,116.73
2022-09-22T15:28:56.122Z,116.30
2022-09-22T15:31:27.978Z,116.20
2022-09-22T15:33:59.161Z,117.07
2022-09-22T15:36:31.840Z,115.60
2022-09-22T15:39:07.033Z,117.97
2022-09-22T15:41:35.296Z,117.63
2022-09-22T15:44:03.548Z,118.20
2022-09-22T15:46:36.373Z,119.03
2022-09-22T15:49:11.851Z,119.30
2022-09-22T15:51:39.502Z,119.90
2022-09-22T15:54:19.825Z,120.10
2022-09-22T15:56:50.509Z,120.20
2022-09-22T15:59:32.211Z,120.13
2022-09-22T16:02:01.122Z,119.77
2022-09-22T16:04:32.236Z,119.90
2022-09-22T16:07:08.484Z,119.90
2022-09-22T16:09:36.460Z,120.47
2022-09-22T16:12:07.437Z,120.30
2022-09-22T16:14:36.586Z,120.90
2022-09-22T16:17:04.038Z,120.60
2022-09-22T16:19:31.876Z,120.27
2022-09-22T16:21:59.318Z,121.07
2022-09-22T16:24:28.851Z,120.70
2022-09-22T16:26:56.303Z,120.90
2022-09-22T16:29:25.061Z,120.90
2022-09-22T16:31:52.613Z,121.60
2022-09-22T16:34:21.086Z,121.37
2022-09-22T16:36:48.439Z,120.80
2022-09-22T16:39:17.062Z,121.80
2022-09-22T16:41:46.201Z,120.57
2022-09-22T16:44:13.854Z,121.73
2022-09-22T16:46:41.317Z,121.10
2022-09-22T16:49:11.928Z,121.23
2022-09-22T16:51:43.036Z,120.77
2022-09-22T16:54:14.104Z,121.30
2022-09-22T16:56:44.311Z,120.97
2022-09-22T16:59:15.081Z,121.70
2022-09-22T17:01:43.884Z,121.33
2022-09-22T17:04:16.168Z,121.80
2022-09-22T17:06:43.828Z,120.87
2022-09-22T17:09:13.036Z,121.60
2022-09-22T17:11:43.560Z,121.70
2022-09-22T17:14:22.948Z,122.20
2022-09-22T17:16:53.660Z,122.50
2022-09-22T17:19:27.623Z,121.30
2022-09-22T17:21:56.737Z,122.30
2022-09-22T17:24:26.832Z,122.63
2022-09-22T17:26:58.204Z,122.07
2022-09-22T17:29:29.712Z,122.90
2022-09-22T17:32:02.495Z,122.20
2022-09-22T17:34:35.432Z,123.00
2022-09-22T17:37:03.974Z,122.47
2022-09-22T17:39:32.479Z,123.10
2022-09-22T17:42:00.199Z,121.77
2022-09-22T17:44:30.913Z,123.17
2022-09-22T17:47:16.956Z,122.87
2022-09-22T17:50:03.132Z,123.53
2022-09-22T17:52:33.307Z,123.03
2022-09-22T17:55:12.578Z,123.07
2022-09-22T17:57:45.378Z,123.17
2022-09-22T18:00:20.974Z,122.90
2022-09-22T18:02:50.825Z,122.77
2022-09-22T18:05:25.317Z,123.40
2022-09-22T18:07:57.577Z,122.80
2022-09-22T18:10:31.967Z,122.97
2022-09-22T18:13:00.306Z,122.77
2022-09-22T18:15:28.274Z,123.20
2022-09-22T18:17:57.750Z,123.00
2022-09-22T18:20:27.488Z,122.47
2022-09-22T18:22:55.891Z,122.63
2022-09-22T18:25:25.525Z,121.27
2022-09-22T18:27:53.429Z,122.47
2022-09-22T18:30:20.914Z,122.77
2022-09-22T18:32:48.834Z,122.10
2022-09-22T18:35:16.596Z,123.30
2022-09-22T18:37:44.027Z,123.17
2022-09-22T18:40:12.290Z,123.03
2022-09-22T18:42:41.280Z,123.37
2022-09-22T18:45:10.962Z,123.60
2022-09-22T18:47:40.771Z,124.53
2022-09-22T18:50:09.709Z,123.70
2022-09-22T18:52:38.084Z,122.47
2022-09-22T18:55:09.240Z,123.77
2022-09-22T18:57:36.729Z,122.87
2022-09-22T19:00:04.996Z,122.87
2022-09-22T19:02:32.183Z,124.10
2022-09-22T19:04:59.782Z,123.97
2022-09-22T19:07:42.647Z,123.03
2022-09-22T19:10:15.382Z,123.27
2022-09-22T19:12:43.146Z,123.43
2022-09-22T19:15:18.424Z,123.57
2022-09-22T19:17:49.117Z,122.47
2022-09-22T19:20:23.718Z,123.87
2022-09-22T19:22:52.516Z,121.70
2022-09-22T19:25:21.860Z,122.70
2022-09-22T19:27:52.340Z,122.87
2022-09-22T19:30:23.311Z,121.93
2022-09-22T19:32:52.469Z,123.90
2022-09-22T19:35:20.713Z,123.50
2022-09-22T19:37:48.719Z,122.80
2022-09-22T19:40:18.663Z,122.97
2022-09-22T19:42:47.509Z,123.30
2022-09-22T19:45:15.475Z,122.67
2022-09-22T19:47:42.993Z,123.50
2022-09-22T19:50:10.381Z,123.70
2022-09-22T19:52:38.763Z,123.33
2022-09-22T19:55:08.798Z,123.23
2022-09-22T19:57:38.218Z,121.73
2022-09-22T20:00:06.129Z,123.33
2022-09-22T20:02:39.157Z,123.80
2022-09-22T20:05:20.483Z,120.57
2022-09-22T20:07:50.633Z,123.20
2022-09-22T20:10:22.346Z,122.20
2022-09-22T20:12:51.846Z,122.70
2022-09-22T20:15:19.734Z,123.07
2022-09-22T20:17:48.090Z,123.67
2022-09-22T20:20:25.151Z,121.67
2022-09-22T20:22:59.920Z,122.47
2022-09-22T20:25:30.874Z,122.97
2022-09-22T20:27:58.827Z,123.30
2022-09-22T20:30:27.323Z,122.50
2022-09-22T20:32:54.833Z,122.17
2022-09-22T20:35:22.298Z,122.90
2022-09-22T20:37:51.306Z,122.90
2022-09-22T20:40:21.323Z,123.37
2022-09-22T20:42:49.887Z,121.87
2022-09-22T20:45:20.685Z,122.57
2022-09-22T20:47:49.027Z,122.80
2022-09-22T20:50:16.553Z,123.10
2022-09-22T20:52:44.031Z,122.30
2022-09-22T20:55:12.042Z,122.50
2022-09-22T20:57:40.147Z,122.70
2022-09-22T21:00:08.940Z,122.57
2022-09-22T21:02:36.464Z,122.70
2022-09-22T21:05:04.197Z,122.40
2022-09-22T21:07:33.059Z,123.20
2022-09-22T21:10:18.955Z,122.40
2022-09-22T21:12:46.412Z,122.60
2022-09-22T21:15:14.380Z,123.00
2022-09-22T21:17:43.986Z,122.87
2022-09-22T21:20:11.536Z,123.37
2022-09-22T21:22:38.989Z,122.60
2022-09-22T21:25:06.762Z,122.73
2022-09-22T21:27:34.680Z,122.07
2022-09-22T21:30:02.112Z,121.97
2022-09-22T21:32:29.524Z,121.97
2022-09-22T21:34:57.396Z,138.37
2022-09-22T21:37:24.967Z,122.40
2022-09-22T21:39:52.524Z,122.37
2022-09-22T21:42:20.000Z,122.83
2022-09-22T21:44:48.457Z,122.17
2022-09-22T21:47:15.832Z,126.47
2022-09-22T21:49:43.201Z,122.30
2022-09-22T21:52:10.632Z,123.03
2022-09-22T21:54:38.155Z,123.47
2022-09-22T21:57:05.638Z,122.03
2022-09-22T21:59:33.043Z,122.37
2022-09-22T22:02:00.578Z,121.20
2022-09-22T22:04:28.239Z,122.70
2022-09-22T22:06:55.937Z,123.30
2022-09-22T22:09:25.169Z,123.17
2022-09-22T22:11:57.373Z,122.57
2022-09-22T22:14:27.962Z,123.13
2022-09-22T22:16:55.814Z,123.03
2022-09-22T22:19:26.677Z,122.17
2022-09-22T22:21:54.904Z,123.00
2022-09-22T22:24:28.605Z,122.60
2022-09-22T22:27:01.619Z,123.00
2022-09-22T22:29:34.593Z,123.23
2022-09-22T22:32:06.214Z,123.23
2022-09-22T22:34:34.202Z,122.77
2022-09-22T22:37:01.745Z,121.17
2022-09-22T22:39:29.784Z,122.97
2022-09-22T22:41:57.320Z,122.83
2022-09-22T22:44:24.754Z,122.17
2022-09-22T22:46:51.676Z,122.83
2022-09-22T22:49:19.582Z,120.57
2022-09-22T22:51:49.019Z,123.07
2022-09-22T22:54:16.498Z,122.67
2022-09-22T22:56:46.831Z,121.67
2022-09-22T22:59:18.177Z,123.17
2022-09-22T23:01:45.607Z,122.47
2022-09-22T23:04:13.552Z,123.17
2022-09-22T23:06:45.179Z,122.77
2022-09-22T23:09:16.416Z,123.27
2022-09-22T23:11:46.085Z,123.10
2022-09-22T23:14:15.734Z,122.63
2022-09-22T23:16:46.388Z,122.13
2022-09-22T23:19:17.329Z,122.80
2022-09-22T23:21:45.378Z,122.50
2022-09-22T23:24:18.702Z,122.70
2022-09-22T23:26:46.870Z,123.00
2022-09-22T23:29:14.384Z,123.00
2022-09-22T23:31:41.885Z,122.20
2022-09-22T23:34:08.981Z,122.80
2022-09-22T23:36:36.483Z,122.40
2022-09-22T23:39:04.648Z,122.67
2022-09-22T23:41:35.118Z,122.90
2022-09-22T23:44:03.585Z,119.40
2022-09-22T23:46:31.638Z,122.67
2022-09-22T23:48:59.933Z,121.97
2022-09-22T23:51:27.882Z,123.30
2022-09-22T23:53:56.023Z,122.60
2022-09-22T23:56:24.326Z,120.70
2022-09-22T23:58:52.231Z,123.00
